sensor_id;sensor_type;location;lat;lon;timestamp;P1;durP1;ratioP1;P2;durP2;ratioP2
66129;SDS011;52930;51.464;11.764;2023-06-26T00:02:12;10.93;;;5.25;;
66129;SDS011;52930;51.464;11.764;2023-06-26T00:04:37;10.52;;;5.38;;
66129;SDS011;52930;51.464;11.764;2023-06-26T00:07:06;10.57;;;5.53;;
66129;SDS011;52930;51.464;11.764;2023-06-26T00:09:32;11.57;;;6.32;;
66129;SDS011;52930;51.464;11.764;2023-06-26T00:11:57;8.80;;;5.40;;
66129;SDS011;52930;51.464;11.764;2023-06-26T00:14:24;12.15;;;6.47;;
66129;SDS011;52930;51.464;11.764;2023-06-26T00:16:50;11.50;;;6.32;;
66129;SDS011;52930;51.464;11.764;2023-06-26T00:19:16;10.27;;;6.27;;
66129;SDS011;52930;51.464;11.764;2023-06-26T00:21:41;10.67;;;5.93;;
66129;SDS011;52930;51.464;11.764;2023-06-26T00:24:11;10.57;;;6.28;;
66129;SDS011;52930;51.464;11.764;2023-06-26T00:26:37;11.07;;;6.50;;
66129;SDS011;52930;51.464;11.764;2023-06-26T00:29:02;9.80;;;5.88;;
66129;SDS011;52930;51.464;11.764;2023-06-26T00:31:27;10.75;;;6.40;;
66129;SDS011;52930;51.464;11.764;2023-06-26T00:33:53;12.17;;;6.87;;
66129;SDS011;52930;51.464;11.764;2023-06-26T00:36:18;12.20;;;7.93;;
66129;SDS011;52930;51.464;11.764;2023-06-26T00:38:43;12.73;;;6.97;;
66129;SDS011;52930;51.464;11.764;2023-06-26T00:41:09;13.07;;;7.63;;
66129;SDS011;52930;51.464;11.764;2023-06-26T00:43:37;14.95;;;7.10;;
66129;SDS011;52930;51.464;11.764;2023-06-26T00:46:03;11.87;;;7.20;;
66129;SDS011;52930;51.464;11.764;2023-06-26T00:48:28;13.35;;;6.90;;
66129;SDS011;52930;51.464;11.764;2023-06-26T00:50:54;12.57;;;7.13;;
66129;SDS011;52930;51.464;11.764;2023-06-26T00:53:19;13.33;;;7.17;;
66129;SDS011;52930;51.464;11.764;2023-06-26T00:55:45;13.35;;;6.65;;
66129;SDS011;52930;51.464;11.764;2023-06-26T00:58:11;10.57;;;6.43;;
66129;SDS011;52930;51.464;11.764;2023-06-26T01:00:36;13.37;;;6.13;;
66129;SDS011;52930;51.464;11.764;2023-06-26T01:03:01;11.10;;;6.33;;
66129;SDS011;52930;51.464;11.764;2023-06-26T01:05:27;10.93;;;6.03;;
66129;SDS011;52930;51.464;11.764;2023-06-26T01:07:53;10.67;;;6.03;;
66129;SDS011;52930;51.464;11.764;2023-06-26T01:10:19;9.68;;;5.93;;
66129;SDS011;52930;51.464;11.764;2023-06-26T01:12:44;10.17;;;5.90;;
66129;SDS011;52930;51.464;11.764;2023-06-26T01:15:10;12.13;;;5.60;;
66129;SDS011;52930;51.464;11.764;2023-06-26T01:17:36;10.82;;;5.88;;
66129;SDS011;52930;51.464;11.764;2023-06-26T01:20:03;10.25;;;5.80;;
66129;SDS011;52930;51.464;11.764;2023-06-26T01:22:34;10.43;;;5.90;;
66129;SDS011;52930;51.464;11.764;2023-06-26T01:28:14;10.63;;;5.82;;
66129;SDS011;52930;51.464;11.764;2023-06-26T01:30:42;9.85;;;5.80;;
66129;SDS011;52930;51.464;11.764;2023-06-26T01:33:09;10.15;;;6.28;;
66129;SDS011;52930;51.464;11.764;2023-06-26T01:35:36;10.77;;;6.70;;
66129;SDS011;52930;51.464;11.764;2023-06-26T01:38:15;10.13;;;5.77;;
66129;SDS011;52930;51.464;11.764;2023-06-26T01:40:42;10.30;;;5.72;;
66129;SDS011;52930;51.464;11.764;2023-06-26T01:49:09;11.60;;;6.88;;
66129;SDS011;52930;51.464;11.764;2023-06-26T01:52:06;10.75;;;6.30;;
66129;SDS011;52930;51.464;11.764;2023-06-26T01:54:37;11.95;;;5.90;;
66129;SDS011;52930;51.464;11.764;2023-06-26T01:57:04;14.15;;;5.68;;
66129;SDS011;52930;51.464;11.764;2023-06-26T01:59:31;12.00;;;6.65;;
66129;SDS011;52930;51.464;11.764;2023-06-26T02:01:57;11.43;;;6.50;;
66129;SDS011;52930;51.464;11.764;2023-06-26T02:04:22;18.40;;;6.37;;
66129;SDS011;52930;51.464;11.764;2023-06-26T02:06:48;10.73;;;6.07;;
66129;SDS011;52930;51.464;11.764;2023-06-26T02:09:13;11.57;;;6.27;;
66129;SDS011;52930;51.464;11.764;2023-06-26T02:11:38;11.03;;;6.37;;
66129;SDS011;52930;51.464;11.764;2023-06-26T02:14:04;11.37;;;6.83;;
66129;SDS011;52930;51.464;11.764;2023-06-26T02:16:29;11.00;;;7.20;;
66129;SDS011;52930;51.464;11.764;2023-06-26T02:18:54;11.13;;;6.20;;
66129;SDS011;52930;51.464;11.764;2023-06-26T02:21:22;13.23;;;6.27;;
66129;SDS011;52930;51.464;11.764;2023-06-26T02:23:47;10.40;;;6.53;;
66129;SDS011;52930;51.464;11.764;2023-06-26T02:26:13;13.80;;;6.35;;
66129;SDS011;52930;51.464;11.764;2023-06-26T02:28:38;10.57;;;6.40;;
66129;SDS011;52930;51.464;11.764;2023-06-26T02:31:04;13.37;;;8.30;;
66129;SDS011;52930;51.464;11.764;2023-06-26T02:33:29;15.23;;;7.70;;
66129;SDS011;52930;51.464;11.764;2023-06-26T02:35:55;12.68;;;7.35;;
66129;SDS011;52930;51.464;11.764;2023-06-26T02:38:20;9.93;;;6.43;;
66129;SDS011;52930;51.464;11.764;2023-06-26T02:40:46;11.37;;;6.90;;
66129;SDS011;52930;51.464;11.764;2023-06-26T02:43:11;12.50;;;7.27;;
66129;SDS011;52930;51.464;11.764;2023-06-26T02:45:36;12.27;;;7.25;;
66129;SDS011;52930;51.464;11.764;2023-06-26T02:48:02;11.57;;;6.72;;
66129;SDS011;52930;51.464;11.764;2023-06-26T02:50:27;13.53;;;7.00;;
66129;SDS011;52930;51.464;11.764;2023-06-26T02:52:53;11.50;;;7.07;;
66129;SDS011;52930;51.464;11.764;2023-06-26T02:55:18;10.30;;;6.77;;
66129;SDS011;52930;51.464;11.764;2023-06-26T02:57:45;13.32;;;7.28;;
66129;SDS011;52930;51.464;11.764;2023-06-26T03:00:10;13.93;;;6.60;;
66129;SDS011;52930;51.464;11.764;2023-06-26T03:02:36;12.00;;;6.88;;
66129;SDS011;52930;51.464;11.764;2023-06-26T03:05:02;13.23;;;6.93;;
66129;SDS011;52930;51.464;11.764;2023-06-26T03:07:27;12.40;;;6.30;;
66129;SDS011;52930;51.464;11.764;2023-06-26T03:09:53;10.57;;;6.40;;
66129;SDS011;52930;51.464;11.764;2023-06-26T03:12:18;11.00;;;6.07;;
66129;SDS011;52930;51.464;11.764;2023-06-26T03:14:43;11.47;;;6.53;;
66129;SDS011;52930;51.464;11.764;2023-06-26T03:17:09;11.52;;;6.82;;
66129;SDS011;52930;51.464;11.764;2023-06-26T03:19:34;11.98;;;6.90;;
66129;SDS011;52930;51.464;11.764;2023-06-26T03:21:59;13.20;;;6.40;;
66129;SDS011;52930;51.464;11.764;2023-06-26T03:24:25;10.00;;;5.80;;
66129;SDS011;52930;51.464;11.764;2023-06-26T03:26:50;12.33;;;6.40;;
66129;SDS011;52930;51.464;11.764;2023-06-26T03:29:16;10.05;;;6.32;;
66129;SDS011;52930;51.464;11.764;2023-06-26T03:31:42;10.27;;;6.30;;
66129;SDS011;52930;51.464;11.764;2023-06-26T03:34:07;11.50;;;6.00;;
66129;SDS011;52930;51.464;11.764;2023-06-26T03:36:33;9.82;;;6.22;;
66129;SDS011;52930;51.464;11.764;2023-06-26T03:38:58;11.05;;;6.30;;
66129;SDS011;52930;51.464;11.764;2023-06-26T03:41:23;12.37;;;5.63;;
66129;SDS011;52930;51.464;11.764;2023-06-26T03:43:49;11.33;;;5.80;;
66129;SDS011;52930;51.464;11.764;2023-06-26T03:46:14;10.47;;;6.27;;
66129;SDS011;52930;51.464;11.764;2023-06-26T03:48:40;10.37;;;6.33;;
66129;SDS011;52930;51.464;11.764;2023-06-26T03:51:06;10.77;;;6.22;;
66129;SDS011;52930;51.464;11.764;2023-06-26T03:53:32;10.63;;;6.55;;
66129;SDS011;52930;51.464;11.764;2023-06-26T03:55:57;11.57;;;6.55;;
66129;SDS011;52930;51.464;11.764;2023-06-26T03:58:23;13.67;;;6.40;;
66129;SDS011;52930;51.464;11.764;2023-06-26T04:00:50;12.73;;;6.63;;
66129;SDS011;52930;51.464;11.764;2023-06-26T04:03:15;11.13;;;6.77;;
66129;SDS011;52930;51.464;11.764;2023-06-26T04:05:40;12.47;;;7.07;;
66129;SDS011;52930;51.464;11.764;2023-06-26T04:08:06;12.70;;;6.80;;
66129;SDS011;52930;51.464;11.764;2023-06-26T04:10:31;11.10;;;6.70;;
66129;SDS011;52930;51.464;11.764;2023-06-26T04:12:56;12.07;;;7.80;;
66129;SDS011;52930;51.464;11.764;2023-06-26T04:15:22;13.67;;;7.73;;
66129;SDS011;52930;51.464;11.764;2023-06-26T04:17:47;15.77;;;8.77;;
66129;SDS011;52930;51.464;11.764;2023-06-26T04:20:12;12.83;;;7.47;;
66129;SDS011;52930;51.464;11.764;2023-06-26T04:22:38;15.63;;;7.77;;
66129;SDS011;52930;51.464;11.764;2023-06-26T04:25:03;10.53;;;6.47;;
66129;SDS011;52930;51.464;11.764;2023-06-26T04:27:29;12.60;;;6.80;;
66129;SDS011;52930;51.464;11.764;2023-06-26T04:29:55;12.20;;;6.47;;
66129;SDS011;52930;51.464;11.764;2023-06-26T04:32:20;11.05;;;5.28;;
66129;SDS011;52930;51.464;11.764;2023-06-26T04:34:45;10.23;;;5.70;;
66129;SDS011;52930;51.464;11.764;2023-06-26T04:37:12;9.60;;;5.60;;
66129;SDS011;52930;51.464;11.764;2023-06-26T04:39:41;11.07;;;5.53;;
66129;SDS011;52930;51.464;11.764;2023-06-26T04:42:06;9.70;;;5.90;;
66129;SDS011;52930;51.464;11.764;2023-06-26T04:44:32;9.82;;;5.50;;
66129;SDS011;52930;51.464;11.764;2023-06-26T04:46:57;9.60;;;5.20;;
66129;SDS011;52930;51.464;11.764;2023-06-26T04:49:23;10.30;;;6.17;;
66129;SDS011;52930;51.464;11.764;2023-06-26T04:51:48;11.23;;;5.33;;
66129;SDS011;52930;51.464;11.764;2023-06-26T04:54:15;9.00;;;5.72;;
66129;SDS011;52930;51.464;11.764;2023-06-26T04:56:41;12.63;;;5.67;;
66129;SDS011;52930;51.464;11.764;2023-06-26T04:59:06;10.77;;;5.40;;
66129;SDS011;52930;51.464;11.764;2023-06-26T05:01:32;13.10;;;6.40;;
66129;SDS011;52930;51.464;11.764;2023-06-26T05:04:00;12.57;;;6.20;;
66129;SDS011;52930;51.464;11.764;2023-06-26T05:06:25;10.80;;;5.82;;
66129;SDS011;52930;51.464;11.764;2023-06-26T05:08:50;10.07;;;6.00;;
66129;SDS011;52930;51.464;11.764;2023-06-26T05:11:16;9.20;;;5.37;;
66129;SDS011;52930;51.464;11.764;2023-06-26T05:13:41;9.65;;;5.53;;
66129;SDS011;52930;51.464;11.764;2023-06-26T05:16:07;9.90;;;5.80;;
66129;SDS011;52930;51.464;11.764;2023-06-26T05:18:34;9.77;;;5.90;;
66129;SDS011;52930;51.464;11.764;2023-06-26T05:20:59;11.27;;;6.18;;
66129;SDS011;52930;51.464;11.764;2023-06-26T05:23:25;10.43;;;5.70;;
66129;SDS011;52930;51.464;11.764;2023-06-26T05:25:51;9.77;;;5.65;;
66129;SDS011;52930;51.464;11.764;2023-06-26T05:28:17;12.00;;;5.85;;
66129;SDS011;52930;51.464;11.764;2023-06-26T05:30:42;10.93;;;7.00;;
66129;SDS011;52930;51.464;11.764;2023-06-26T05:33:08;10.57;;;5.73;;
66129;SDS011;52930;51.464;11.764;2023-06-26T05:35:36;11.45;;;6.28;;
66129;SDS011;52930;51.464;11.764;2023-06-26T05:38:01;11.50;;;5.73;;
66129;SDS011;52930;51.464;11.764;2023-06-26T05:40:26;8.80;;;5.37;;
66129;SDS011;52930;51.464;11.764;2023-06-26T05:42:52;11.20;;;5.68;;
66129;SDS011;52930;51.464;11.764;2023-06-26T05:45:17;10.13;;;5.70;;
66129;SDS011;52930;51.464;11.764;2023-06-26T05:47:43;13.37;;;5.80;;
66129;SDS011;52930;51.464;11.764;2023-06-26T05:50:08;13.10;;;5.93;;
66129;SDS011;52930;51.464;11.764;2023-06-26T05:52:35;12.23;;;5.80;;
66129;SDS011;52930;51.464;11.764;2023-06-26T05:55:01;9.43;;;5.28;;
66129;SDS011;52930;51.464;11.764;2023-06-26T05:57:27;13.23;;;5.85;;
66129;SDS011;52930;51.464;11.764;2023-06-26T05:59:54;9.88;;;5.78;;
66129;SDS011;52930;51.464;11.764;2023-06-26T06:02:19;9.83;;;5.80;;
66129;SDS011;52930;51.464;11.764;2023-06-26T06:04:45;11.10;;;5.53;;
66129;SDS011;52930;51.464;11.764;2023-06-26T06:07:10;9.33;;;5.37;;
66129;SDS011;52930;51.464;11.764;2023-06-26T06:09:35;11.88;;;5.68;;
66129;SDS011;52930;51.464;11.764;2023-06-26T06:12:01;10.63;;;5.80;;
66129;SDS011;52930;51.464;11.764;2023-06-26T06:14:27;12.37;;;5.77;;
66129;SDS011;52930;51.464;11.764;2023-06-26T06:16:53;12.55;;;5.63;;
66129;SDS011;52930;51.464;11.764;2023-06-26T06:19:18;8.67;;;5.37;;
66129;SDS011;52930;51.464;11.764;2023-06-26T06:21:44;10.33;;;5.60;;
66129;SDS011;52930;51.464;11.764;2023-06-26T06:24:09;10.10;;;5.83;;
66129;SDS011;52930;51.464;11.764;2023-06-26T06:26:34;9.98;;;5.15;;
66129;SDS011;52930;51.464;11.764;2023-06-26T06:29:00;17.73;;;6.30;;
66129;SDS011;52930;51.464;11.764;2023-06-26T06:31:25;12.33;;;5.80;;
66129;SDS011;52930;51.464;11.764;2023-06-26T06:33:53;10.48;;;5.47;;
66129;SDS011;52930;51.464;11.764;2023-06-26T06:36:19;11.90;;;5.88;;
66129;SDS011;52930;51.464;11.764;2023-06-26T06:38:45;11.90;;;5.43;;
66129;SDS011;52930;51.464;11.764;2023-06-26T06:41:10;13.50;;;5.10;;
66129;SDS011;52930;51.464;11.764;2023-06-26T06:43:36;9.27;;;4.88;;
66129;SDS011;52930;51.464;11.764;2023-06-26T06:46:01;10.90;;;5.17;;
66129;SDS011;52930;51.464;11.764;2023-06-26T06:48:27;11.80;;;6.13;;
66129;SDS011;52930;51.464;11.764;2023-06-26T06:50:52;8.50;;;4.80;;
66129;SDS011;52930;51.464;11.764;2023-06-26T06:53:18;12.23;;;5.00;;
66129;SDS011;52930;51.464;11.764;2023-06-26T06:55:45;8.50;;;4.95;;
66129;SDS011;52930;51.464;11.764;2023-06-26T06:58:11;11.73;;;4.97;;
66129;SDS011;52930;51.464;11.764;2023-06-26T07:00:36;10.20;;;4.53;;
66129;SDS011;52930;51.464;11.764;2023-06-26T07:03:02;8.57;;;4.53;;
66129;SDS011;52930;51.464;11.764;2023-06-26T07:05:27;8.50;;;4.47;;
66129;SDS011;52930;51.464;11.764;2023-06-26T07:07:53;9.00;;;4.50;;
66129;SDS011;52930;51.464;11.764;2023-06-26T07:10:18;10.73;;;5.30;;
66129;SDS011;52930;51.464;11.764;2023-06-26T07:12:43;11.37;;;4.60;;
66129;SDS011;52930;51.464;11.764;2023-06-26T07:15:09;8.32;;;4.80;;
66129;SDS011;52930;51.464;11.764;2023-06-26T07:17:35;12.00;;;4.93;;
66129;SDS011;52930;51.464;11.764;2023-06-26T07:20:03;13.50;;;4.97;;
66129;SDS011;52930;51.464;11.764;2023-06-26T07:22:33;9.02;;;4.65;;
66129;SDS011;52930;51.464;11.764;2023-06-26T07:24:58;10.47;;;4.60;;
66129;SDS011;52930;51.464;11.764;2023-06-26T07:27:23;11.57;;;4.83;;
66129;SDS011;52930;51.464;11.764;2023-06-26T07:29:50;10.02;;;4.53;;
66129;SDS011;52930;51.464;11.764;2023-06-26T07:32:15;10.43;;;4.47;;
66129;SDS011;52930;51.464;11.764;2023-06-26T07:34:41;10.00;;;4.63;;
66129;SDS011;52930;51.464;11.764;2023-06-26T07:37:06;10.93;;;4.73;;
66129;SDS011;52930;51.464;11.764;2023-06-26T07:39:32;10.68;;;4.07;;
66129;SDS011;52930;51.464;11.764;2023-06-26T07:41:57;7.73;;;4.97;;
66129;SDS011;52930;51.464;11.764;2023-06-26T07:44:25;12.15;;;4.65;;
66129;SDS011;52930;51.464;11.764;2023-06-26T07:46:51;10.53;;;4.10;;
66129;SDS011;52930;51.464;11.764;2023-06-26T07:49:16;9.70;;;4.43;;
66129;SDS011;52930;51.464;11.764;2023-06-26T07:51:41;10.67;;;5.00;;
66129;SDS011;52930;51.464;11.764;2023-06-26T07:54:07;9.00;;;4.97;;
66129;SDS011;52930;51.464;11.764;2023-06-26T07:56:35;9.65;;;4.07;;
66129;SDS011;52930;51.464;11.764;2023-06-26T07:59:00;7.87;;;4.40;;
66129;SDS011;52930;51.464;11.764;2023-06-26T08:01:29;8.15;;;4.25;;
66129;SDS011;52930;51.464;11.764;2023-06-26T08:03:54;7.20;;;4.37;;
66129;SDS011;52930;51.464;11.764;2023-06-26T08:06:19;8.48;;;4.10;;
66129;SDS011;52930;51.464;11.764;2023-06-26T08:08:45;8.67;;;4.87;;
66129;SDS011;52930;51.464;11.764;2023-06-26T08:11:10;7.70;;;4.50;;
66129;SDS011;52930;51.464;11.764;2023-06-26T08:13:36;7.07;;;4.50;;
66129;SDS011;52930;51.464;11.764;2023-06-26T08:16:01;8.60;;;4.93;;
66129;SDS011;52930;51.464;11.764;2023-06-26T08:18:27;11.23;;;4.90;;
66129;SDS011;52930;51.464;11.764;2023-06-26T08:20:52;7.93;;;4.53;;
66129;SDS011;52930;51.464;11.764;2023-06-26T08:23:17;8.90;;;4.37;;
66129;SDS011;52930;51.464;11.764;2023-06-26T08:25:43;9.53;;;4.60;;
66129;SDS011;52930;51.464;11.764;2023-06-26T08:28:08;9.20;;;4.83;;
66129;SDS011;52930;51.464;11.764;2023-06-26T08:30:33;11.40;;;5.23;;
66129;SDS011;52930;51.464;11.764;2023-06-26T08:32:59;8.95;;;4.45;;
66129;SDS011;52930;51.464;11.764;2023-06-26T08:35:24;9.67;;;4.93;;
66129;SDS011;52930;51.464;11.764;2023-06-26T08:37:49;8.60;;;4.30;;
66129;SDS011;52930;51.464;11.764;2023-06-26T08:40:17;7.37;;;5.03;;
66129;SDS011;52930;51.464;11.764;2023-06-26T08:42:45;10.38;;;4.53;;
66129;SDS011;52930;51.464;11.764;2023-06-26T08:45:11;7.90;;;4.73;;
66129;SDS011;52930;51.464;11.764;2023-06-26T08:47:37;8.63;;;4.25;;
66129;SDS011;52930;51.464;11.764;2023-06-26T08:50:12;8.00;;;4.57;;
66129;SDS011;52930;51.464;11.764;2023-06-26T08:55:36;9.35;;;4.47;;
66129;SDS011;52930;51.464;11.764;2023-06-26T08:58:06;7.78;;;4.32;;
66129;SDS011;52930;51.464;11.764;2023-06-26T09:00:31;7.47;;;4.30;;
66129;SDS011;52930;51.464;11.764;2023-06-26T09:02:57;8.50;;;4.43;;
66129;SDS011;52930;51.464;11.764;2023-06-26T09:05:23;7.22;;;4.63;;
66129;SDS011;52930;51.464;11.764;2023-06-26T09:07:48;8.20;;;4.50;;
66129;SDS011;52930;51.464;11.764;2023-06-26T09:10:13;7.43;;;4.50;;
66129;SDS011;52930;51.464;11.764;2023-06-26T09:12:39;7.47;;;4.30;;
66129;SDS011;52930;51.464;11.764;2023-06-26T09:15:05;7.30;;;4.57;;
66129;SDS011;52930;51.464;11.764;2023-06-26T09:17:33;10.10;;;4.80;;
66129;SDS011;52930;51.464;11.764;2023-06-26T09:19:59;6.57;;;4.13;;
66129;SDS011;52930;51.464;11.764;2023-06-26T09:22:25;6.97;;;4.47;;
66129;SDS011;52930;51.464;11.764;2023-06-26T09:24:50;6.78;;;4.07;;
66129;SDS011;52930;51.464;11.764;2023-06-26T09:27:16;6.93;;;4.20;;
66129;SDS011;52930;51.464;11.764;2023-06-26T09:29:42;7.32;;;4.25;;
66129;SDS011;52930;51.464;11.764;2023-06-26T09:32:11;8.45;;;4.15;;
66129;SDS011;52930;51.464;11.764;2023-06-26T09:34:40;10.00;;;4.07;;
66129;SDS011;52930;51.464;11.764;2023-06-26T09:37:06;7.80;;;4.03;;
66129;SDS011;52930;51.464;11.764;2023-06-26T09:39:32;7.63;;;4.40;;
66129;SDS011;52930;51.464;11.764;2023-06-26T09:41:58;11.70;;;4.57;;
66129;SDS011;52930;51.464;11.764;2023-06-26T09:44:24;8.33;;;4.10;;
66129;SDS011;52930;51.464;11.764;2023-06-26T09:46:49;8.27;;;4.13;;
66129;SDS011;52930;51.464;11.764;2023-06-26T09:49:14;7.13;;;4.00;;
66129;SDS011;52930;51.464;11.764;2023-06-26T09:51:41;6.90;;;4.13;;
66129;SDS011;52930;51.464;11.764;2023-06-26T09:54:07;8.85;;;4.28;;
66129;SDS011;52930;51.464;11.764;2023-06-26T09:56:34;7.10;;;4.32;;
66129;SDS011;52930;51.464;11.764;2023-06-26T09:59:01;6.87;;;3.93;;
66129;SDS011;52930;51.464;11.764;2023-06-26T10:01:28;8.40;;;4.57;;
66129;SDS011;52930;51.464;11.764;2023-06-26T10:03:54;8.38;;;4.05;;
66129;SDS011;52930;51.464;11.764;2023-06-26T10:06:24;22.88;;;6.03;;
66129;SDS011;52930;51.464;11.764;2023-06-26T10:08:53;44.30;;;8.57;;
66129;SDS011;52930;51.464;11.764;2023-06-26T10:11:21;46.77;;;8.27;;
66129;SDS011;52930;51.464;11.764;2023-06-26T10:13:47;10.85;;;4.75;;
66129;SDS011;52930;51.464;11.764;2023-06-26T10:16:16;7.95;;;5.03;;
66129;SDS011;52930;51.464;11.764;2023-06-26T10:18:43;9.70;;;4.70;;
66129;SDS011;52930;51.464;11.764;2023-06-26T10:21:08;6.93;;;4.30;;
66129;SDS011;52930;51.464;11.764;2023-06-26T10:23:35;8.73;;;4.72;;
66129;SDS011;52930;51.464;11.764;2023-06-26T10:26:01;7.35;;;4.55;;
66129;SDS011;52930;51.464;11.764;2023-06-26T10:28:28;8.83;;;4.90;;
66129;SDS011;52930;51.464;11.764;2023-06-26T10:30:55;7.50;;;4.32;;
66129;SDS011;52930;51.464;11.764;2023-06-26T10:33:21;8.47;;;4.60;;
66129;SDS011;52930;51.464;11.764;2023-06-26T10:35:48;7.38;;;4.57;;
66129;SDS011;52930;51.464;11.764;2023-06-26T10:38:14;6.55;;;4.30;;
66129;SDS011;52930;51.464;11.764;2023-06-26T10:40:40;7.13;;;4.20;;
66129;SDS011;52930;51.464;11.764;2023-06-26T10:43:06;9.73;;;5.07;;
66129;SDS011;52930;51.464;11.764;2023-06-26T10:45:33;7.55;;;4.30;;
66129;SDS011;52930;51.464;11.764;2023-06-26T10:47:58;8.13;;;4.70;;
66129;SDS011;52930;51.464;11.764;2023-06-26T10:50:24;7.93;;;4.10;;
66129;SDS011;52930;51.464;11.764;2023-06-26T10:55:51;8.32;;;4.72;;
66129;SDS011;52930;51.464;11.764;2023-06-26T11:03:40;9.70;;;5.17;;
66129;SDS011;52930;51.464;11.764;2023-06-26T11:06:13;8.40;;;4.68;;
66129;SDS011;52930;51.464;11.764;2023-06-26T11:08:49;8.45;;;4.78;;
66129;SDS011;52930;51.464;11.764;2023-06-26T11:11:18;7.57;;;4.40;;
66129;SDS011;52930;51.464;11.764;2023-06-26T11:13:44;8.60;;;4.73;;
66129;SDS011;52930;51.464;11.764;2023-06-26T11:16:11;8.23;;;4.57;;
66129;SDS011;52930;51.464;11.764;2023-06-26T11:18:37;7.68;;;5.00;;
66129;SDS011;52930;51.464;11.764;2023-06-26T11:21:04;8.40;;;5.05;;
66129;SDS011;52930;51.464;11.764;2023-06-26T11:23:33;8.63;;;4.60;;
66129;SDS011;52930;51.464;11.764;2023-06-26T11:26:16;8.73;;;4.88;;
66129;SDS011;52930;51.464;11.764;2023-06-26T11:28:49;7.10;;;4.40;;
66129;SDS011;52930;51.464;11.764;2023-06-26T11:33:58;7.93;;;4.60;;
66129;SDS011;52930;51.464;11.764;2023-06-26T11:36:25;8.80;;;5.03;;
66129;SDS011;52930;51.464;11.764;2023-06-26T11:38:54;10.25;;;4.63;;
66129;SDS011;52930;51.464;11.764;2023-06-26T11:41:21;8.50;;;4.70;;
66129;SDS011;52930;51.464;11.764;2023-06-26T11:43:46;10.07;;;4.87;;
66129;SDS011;52930;51.464;11.764;2023-06-26T11:46:12;8.10;;;4.93;;
66129;SDS011;52930;51.464;11.764;2023-06-26T11:48:37;8.77;;;4.57;;
66129;SDS011;52930;51.464;11.764;2023-06-26T11:51:05;7.37;;;4.30;;
66129;SDS011;52930;51.464;11.764;2023-06-26T11:53:31;8.60;;;5.30;;
66129;SDS011;52930;51.464;11.764;2023-06-26T11:55:56;8.00;;;5.23;;
66129;SDS011;52930;51.464;11.764;2023-06-26T11:58:22;8.00;;;4.33;;
66129;SDS011;52930;51.464;11.764;2023-06-26T12:00:47;10.88;;;5.57;;
66129;SDS011;52930;51.464;11.764;2023-06-26T12:03:13;13.50;;;5.23;;
66129;SDS011;52930;51.464;11.764;2023-06-26T12:05:38;7.87;;;5.03;;
66129;SDS011;52930;51.464;11.764;2023-06-26T12:08:04;8.02;;;4.60;;
66129;SDS011;52930;51.464;11.764;2023-06-26T12:10:31;8.10;;;4.53;;
66129;SDS011;52930;51.464;11.764;2023-06-26T12:12:57;7.05;;;4.47;;
66129;SDS011;52930;51.464;11.764;2023-06-26T12:15:24;9.30;;;4.65;;
66129;SDS011;52930;51.464;11.764;2023-06-26T12:17:49;9.17;;;5.37;;
66129;SDS011;52930;51.464;11.764;2023-06-26T12:20:18;11.67;;;5.27;;
66129;SDS011;52930;51.464;11.764;2023-06-26T12:22:46;8.13;;;4.80;;
66129;SDS011;52930;51.464;11.764;2023-06-26T12:25:12;10.18;;;5.13;;
66129;SDS011;52930;51.464;11.764;2023-06-26T12:27:38;7.60;;;4.80;;
66129;SDS011;52930;51.464;11.764;2023-06-26T12:30:04;15.55;;;4.80;;
66129;SDS011;52930;51.464;11.764;2023-06-26T12:32:30;8.03;;;4.93;;
66129;SDS011;52930;51.464;11.764;2023-06-26T12:34:56;8.45;;;4.93;;
66129;SDS011;52930;51.464;11.764;2023-06-26T12:37:22;7.43;;;4.50;;
66129;SDS011;52930;51.464;11.764;2023-06-26T12:39:54;7.55;;;4.50;;
66129;SDS011;52930;51.464;11.764;2023-06-26T12:42:21;7.30;;;4.40;;
66129;SDS011;52930;51.464;11.764;2023-06-26T12:44:51;8.18;;;4.68;;
66129;SDS011;52930;51.464;11.764;2023-06-26T12:47:17;8.70;;;4.80;;
66129;SDS011;52930;51.464;11.764;2023-06-26T12:49:44;9.07;;;5.18;;
66129;SDS011;52930;51.464;11.764;2023-06-26T12:52:11;6.85;;;4.40;;
66129;SDS011;52930;51.464;11.764;2023-06-26T12:54:41;7.60;;;5.00;;
66129;SDS011;52930;51.464;11.764;2023-06-26T12:57:07;8.80;;;4.50;;
66129;SDS011;52930;51.464;11.764;2023-06-26T12:59:33;9.57;;;4.10;;
66129;SDS011;52930;51.464;11.764;2023-06-26T13:02:00;9.07;;;4.97;;
66129;SDS011;52930;51.464;11.764;2023-06-26T13:04:25;7.97;;;4.73;;
66129;SDS011;52930;51.464;11.764;2023-06-26T13:06:51;8.07;;;4.90;;
66129;SDS011;52930;51.464;11.764;2023-06-26T13:09:19;7.93;;;4.70;;
66129;SDS011;52930;51.464;11.764;2023-06-26T13:11:44;6.70;;;4.03;;
66129;SDS011;52930;51.464;11.764;2023-06-26T13:14:10;7.10;;;4.37;;
66129;SDS011;52930;51.464;11.764;2023-06-26T13:16:35;7.33;;;4.80;;
66129;SDS011;52930;51.464;11.764;2023-06-26T13:19:01;8.80;;;4.90;;
66129;SDS011;52930;51.464;11.764;2023-06-26T13:21:27;9.30;;;4.63;;
66129;SDS011;52930;51.464;11.764;2023-06-26T13:23:53;7.82;;;4.20;;
66129;SDS011;52930;51.464;11.764;2023-06-26T13:26:19;17.90;;;6.33;;
66129;SDS011;52930;51.464;11.764;2023-06-26T13:28:44;13.75;;;7.20;;
66129;SDS011;52930;51.464;11.764;2023-06-26T13:31:10;17.27;;;6.13;;
66129;SDS011;52930;51.464;11.764;2023-06-26T13:33:35;12.00;;;6.00;;
66129;SDS011;52930;51.464;11.764;2023-06-26T13:36:00;11.87;;;6.63;;
66129;SDS011;52930;51.464;11.764;2023-06-26T13:38:29;13.10;;;5.68;;
66129;SDS011;52930;51.464;11.764;2023-06-26T13:40:55;15.80;;;5.40;;
66129;SDS011;52930;51.464;11.764;2023-06-26T13:43:22;12.55;;;5.93;;
66129;SDS011;52930;51.464;11.764;2023-06-26T13:45:48;9.73;;;5.57;;
66129;SDS011;52930;51.464;11.764;2023-06-26T13:48:16;11.90;;;5.93;;
66129;SDS011;52930;51.464;11.764;2023-06-26T13:50:41;16.33;;;5.73;;
66129;SDS011;52930;51.464;11.764;2023-06-26T13:53:06;12.13;;;4.25;;
66129;SDS011;52930;51.464;11.764;2023-06-26T13:55:32;11.87;;;6.53;;
66129;SDS011;52930;51.464;11.764;2023-06-26T13:57:58;11.83;;;5.97;;
66129;SDS011;52930;51.464;11.764;2023-06-26T14:00:24;11.23;;;5.80;;
66129;SDS011;52930;51.464;11.764;2023-06-26T14:02:50;9.57;;;5.93;;
66129;SDS011;52930;51.464;11.764;2023-06-26T14:05:16;9.60;;;4.63;;
66129;SDS011;52930;51.464;11.764;2023-06-26T14:07:43;18.60;;;6.18;;
66129;SDS011;52930;51.464;11.764;2023-06-26T14:10:09;10.10;;;6.57;;
66129;SDS011;52930;51.464;11.764;2023-06-26T14:12:34;12.60;;;5.70;;
66129;SDS011;52930;51.464;11.764;2023-06-26T14:15:00;10.63;;;6.57;;
66129;SDS011;52930;51.464;11.764;2023-06-26T14:17:25;12.32;;;7.07;;
66129;SDS011;52930;51.464;11.764;2023-06-26T14:19:54;12.20;;;6.97;;
66129;SDS011;52930;51.464;11.764;2023-06-26T14:22:19;12.27;;;6.33;;
66129;SDS011;52930;51.464;11.764;2023-06-26T14:24:45;11.13;;;6.45;;
66129;SDS011;52930;51.464;11.764;2023-06-26T14:27:10;9.97;;;4.87;;
66129;SDS011;52930;51.464;11.764;2023-06-26T14:29:36;11.63;;;6.23;;
66129;SDS011;52930;51.464;11.764;2023-06-26T14:32:02;11.10;;;5.30;;
66129;SDS011;52930;51.464;11.764;2023-06-26T14:34:28;12.85;;;5.20;;
66129;SDS011;52930;51.464;11.764;2023-06-26T14:36:53;14.33;;;5.57;;
66129;SDS011;52930;51.464;11.764;2023-06-26T14:39:18;11.33;;;5.53;;
66129;SDS011;52930;51.464;11.764;2023-06-26T14:41:44;11.10;;;5.80;;
66129;SDS011;52930;51.464;11.764;2023-06-26T14:44:09;9.37;;;5.47;;